Time;durP1;ratioP1;P1;durP2;ratioP2;P2;SDS_P1;SDS_P2;PMS_P1;PMS_P2;Temp;Humidity;BMP_temperature;BMP_pressure;BME280_temperature;BME280_humidity;BME280_pressure;Samples;Min_cycle;Max_cycle;Signal;HPM_P1;HPM_P2
2021/06/09 00:00:45;;;;;;;12.40;7.35;;;;;;;;;;4932762;29;20103;-69
2021/06/09 00:03:11;;;;;;;12.52;7.68;;;;;;;;;;4933496;29;20039;-68
2021/06/09 00:05:37;;;;;;;13.77;7.78;;;;;;;;;;4933725;29;20032;-70
2021/06/09 00:08:03;;;;;;;10.73;7.32;;;;;;;;;;4933683;29;20472;-70
2021/06/09 00:10:29;;;;;;;14.00;7.40;;;;;;;;;;4933576;29;20055;-70
2021/06/09 00:12:55;;;;;;;11.73;7.07;;;;;;;;;;4933512;29;20392;-70
2021/06/09 00:15:21;;;;;;;17.30;7.57;;;;;;;;;;4934369;29;20070;-70
2021/06/09 00:17:47;;;;;;;12.10;7.22;;;;;;;;;;4936993;29;20468;-70
2021/06/09 00:20:22;;;;;;;15.00;7.45;;;;;;;;;;4936942;29;20040;-70
2021/06/09 00:22:48;;;;;;;14.93;6.93;;;;;;;;;;4937110;29;20126;-68
2021/06/09 00:25:18;;;;;;;12.50;7.45;;;;;;;;;;4936564;29;20039;-69
2021/06/09 00:27:48;;;;;;;9.63;7.20;;;;;;;;;;4936930;29;20048;-69
2021/06/09 00:30:16;;;;;;;12.82;8.02;;;;;;;;;;4936767;29;20032;-70
2021/06/09 00:32:42;;;;;;;14.23;7.95;;;;;;;;;;4936868;29;20023;-69
2021/06/09 00:35:09;;;;;;;14.27;7.80;;;;;;;;;;4936754;29;20110;-69
2021/06/09 00:37:35;;;;;;;11.75;7.47;;;;;;;;;;4936732;29;20035;-69
2021/06/09 00:40:01;;;;;;;12.00;7.50;;;;;;;;;;4936486;29;20074;-70
2021/06/09 00:42:28;;;;;;;14.77;8.18;;;;;;;;;;4936327;29;20578;-69
2021/06/09 00:44:54;;;;;;;12.85;7.78;;;;;;;;;;4936597;29;20031;-70
2021/06/09 00:47:24;;;;;;;12.35;7.22;;;;;;;;;;4936563;29;20039;-69
2021/06/09 00:49:51;;;;;;;13.18;6.78;;;;;;;;;;4936549;29;20039;-69
2021/06/09 00:52:22;;;;;;;10.82;6.93;;;;;;;;;;4936783;29;20028;-69
2021/06/09 00:54:48;;;;;;;11.73;7.15;;;;;;;;;;4936218;29;20095;-69
2021/06/09 00:57:14;;;;;;;10.48;7.22;;;;;;;;;;4936602;29;20036;-69
2021/06/09 00:59:40;;;;;;;11.52;7.55;;;;;;;;;;4936452;29;20063;-70
2021/06/09 01:02:06;;;;;;;11.25;7.40;;;;;;;;;;4936381;29;20032;-69
2021/06/09 01:04:32;;;;;;;15.02;7.72;;;;;;;;;;4936155;29;20153;-69
2021/06/09 01:07:03;;;;;;;11.77;7.53;;;;;;;;;;4936379;29;20032;-69
2021/06/09 01:09:29;;;;;;;13.68;7.53;;;;;;;;;;4936206;29;20016;-69
2021/06/09 01:11:55;;;;;;;10.35;7.85;;;;;;;;;;4936031;29;20484;-70
2021/06/09 01:14:22;;;;;;;16.55;8.18;;;;;;;;;;4936166;29;20032;-69
2021/06/09 01:16:50;;;;;;;11.90;6.78;;;;;;;;;;4936264;29;20027;-69
2021/06/09 01:19:16;;;;;;;11.73;7.22;;;;;;;;;;4934026;29;20039;-69
2021/06/09 01:21:42;;;;;;;9.90;7.28;;;;;;;;;;4929518;29;20556;-68
2021/06/09 01:24:08;;;;;;;9.93;7.28;;;;;;;;;;4929829;29;20045;-69
2021/06/09 01:26:35;;;;;;;11.35;6.78;;;;;;;;;;4931815;29;20023;-68
2021/06/09 01:29:01;;;;;;;12.18;7.57;;;;;;;;;;4935521;29;20038;-69
2021/06/09 01:31:27;;;;;;;12.15;7.28;;;;;;;;;;4936047;29;20555;-69
2021/06/09 01:33:54;;;;;;;14.75;7.65;;;;;;;;;;4935835;29;20024;-69
2021/06/09 01:36:21;;;;;;;9.63;6.40;;;;;;;;;;4935916;29;20055;-69
2021/06/09 01:38:47;;;;;;;14.43;7.38;;;;;;;;;;4935630;29;20047;-69
2021/06/09 01:41:13;;;;;;;10.85;7.53;;;;;;;;;;4935654;29;20055;-68
2021/06/09 01:43:39;;;;;;;11.63;7.80;;;;;;;;;;4935550;29;20028;-69
2021/06/09 01:46:05;;;;;;;12.48;7.00;;;;;;;;;;4935647;29;20039;-69
2021/06/09 01:48:31;;;;;;;11.48;7.97;;;;;;;;;;4935691;29;20043;-69
2021/06/09 01:50:57;;;;;;;10.98;6.93;;;;;;;;;;4935542;29;20476;-69
2021/06/09 01:53:23;;;;;;;17.42;7.65;;;;;;;;;;4935224;29;20395;-69
2021/06/09 01:55:49;;;;;;;13.50;7.70;;;;;;;;;;4935653;29;20357;-68
2021/06/09 01:58:17;;;;;;;13.30;7.93;;;;;;;;;;4935501;29;20512;-68
2021/06/09 02:00:45;;;;;;;11.30;8.18;;;;;;;;;;4935543;29;20031;-68
2021/06/09 02:03:15;;;;;;;16.23;7.90;;;;;;;;;;4936911;29;20103;-68
2021/06/09 02:05:42;;;;;;;11.77;7.80;;;;;;;;;;4935417;29;20516;-68
2021/06/09 02:08:08;;;;;;;10.48;7.25;;;;;;;;;;4935155;29;20169;-68
2021/06/09 02:10:36;;;;;;;15.70;8.20;;;;;;;;;;4935235;29;20472;-67
2021/06/09 02:13:05;;;;;;;13.27;7.85;;;;;;;;;;4934879;29;20039;-68
2021/06/09 02:15:31;;;;;;;10.75;7.53;;;;;;;;;;4935161;29;20874;-68
2021/06/09 02:18:17;;;;;;;14.25;7.00;;;;;;;;;;4935044;29;20054;-68
2021/06/09 02:20:47;;;;;;;13.68;7.63;;;;;;;;;;4934856;29;20503;-68
2021/06/09 02:23:23;;;;;;;11.43;7.18;;;;;;;;;;4934881;29;20032;-68
2021/06/09 02:25:51;;;;;;;13.25;7.85;;;;;;;;;;4934931;29;20031;-68
2021/06/09 02:28:18;;;;;;;15.18;7.45;;;;;;;;;;4934655;29;20116;-68
2021/06/09 02:30:45;;;;;;;13.68;7.97;;;;;;;;;;4934960;29;20483;-68
2021/06/09 02:33:12;;;;;;;12.45;7.30;;;;;;;;;;4934615;29;20118;-68
2021/06/09 02:35:39;;;;;;;13.07;7.25;;;;;;;;;;4934747;29;20039;-68
2021/06/09 02:38:06;;;;;;;12.35;7.68;;;;;;;;;;4934253;29;20439;-68
2021/06/09 02:40:32;;;;;;;13.88;7.68;;;;;;;;;;4934167;29;20059;-68
2021/06/09 02:42:58;;;;;;;11.00;7.30;;;;;;;;;;4934568;29;20086;-68
2021/06/09 02:45:24;;;;;;;15.13;7.93;;;;;;;;;;4934675;29;20455;-68
2021/06/09 02:47:54;;;;;;;13.10;7.93;;;;;;;;;;4934662;29;20024;-68
2021/06/09 02:50:21;;;;;;;12.52;7.45;;;;;;;;;;4934663;29;20036;-68
2021/06/09 02:53:05;;;;;;;13.15;7.80;;;;;;;;;;4934354;29;20516;-68
2021/06/09 02:55:41;;;;;;;13.93;8.38;;;;;;;;;;4934497;29;20046;-68
2021/06/09 02:58:12;;;;;;;13.65;7.97;;;;;;;;;;4934332;29;20031;-68
2021/06/09 03:01:03;;;;;;;11.82;8.52;;;;;;;;;;4934339;29;20038;-68
2021/06/09 03:03:40;;;;;;;14.02;7.95;;;;;;;;;;4934438;29;20376;-68
2021/06/09 03:06:08;;;;;;;14.57;8.25;;;;;;;;;;4934132;29;20104;-68
2021/06/09 03:08:48;;;;;;;18.98;8.88;;;;;;;;;;4934285;29;20032;-69
2021/06/09 03:11:21;;;;;;;16.95;7.93;;;;;;;;;;4933991;29;20035;-69
2021/06/09 03:13:56;;;;;;;12.57;7.43;;;;;;;;;;4934483;29;20023;-68
2021/06/09 03:16:26;;;;;;;17.48;9.02;;;;;;;;;;4934182;29;20035;-69
2021/06/09 03:18:53;;;;;;;12.82;8.32;;;;;;;;;;4934016;29;20041;-68
2021/06/09 03:21:21;;;;;;;17.65;8.80;;;;;;;;;;4933925;29;20086;-69
2021/06/09 03:23:51;;;;;;;18.25;8.82;;;;;;;;;;4933964;29;20102;-69
2021/06/09 03:26:25;;;;;;;17.15;9.40;;;;;;;;;;4934031;29;20028;-69
2021/06/09 03:28:57;;;;;;;13.45;8.20;;;;;;;;;;4933773;29;20027;-69
2021/06/09 03:31:26;;;;;;;13.55;8.63;;;;;;;;;;4933915;29;20027;-69
2021/06/09 03:33:53;;;;;;;14.43;8.82;;;;;;;;;;4933821;29;20540;-69
2021/06/09 03:36:21;;;;;;;11.93;9.02;;;;;;;;;;4933822;29;20041;-70
2021/06/09 03:38:51;;;;;;;14.82;9.77;;;;;;;;;;4933803;29;20078;-69
2021/06/09 03:41:19;;;;;;;15.93;9.38;;;;;;;;;;4933511;29;20530;-69
2021/06/09 03:43:47;;;;;;;12.95;8.05;;;;;;;;;;4916865;29;20031;-69
2021/06/09 03:46:14;;;;;;;13.52;8.57;;;;;;;;;;4933831;29;20111;-69
2021/06/09 03:48:41;;;;;;;16.13;8.45;;;;;;;;;;4933976;29;20464;-69
2021/06/09 03:51:09;;;;;;;13.95;9.23;;;;;;;;;;4935845;29;20034;-69
2021/06/09 03:53:36;;;;;;;15.40;8.32;;;;;;;;;;4937357;29;20040;-69
2021/06/09 03:56:04;;;;;;;16.90;9.90;;;;;;;;;;4937559;29;20030;-69
2021/06/09 03:58:31;;;;;;;14.15;8.77;;;;;;;;;;4937552;29;20031;-69
2021/06/09 04:00:58;;;;;;;13.88;8.82;;;;;;;;;;4937474;29;20063;-68
2021/06/09 04:03:25;;;;;;;15.20;9.07;;;;;;;;;;4937179;29;20028;-68
2021/06/09 04:05:52;;;;;;;19.13;8.80;;;;;;;;;;4937293;29;20727;-68
2021/06/09 04:08:19;;;;;;;15.02;8.40;;;;;;;;;;4937211;29;20039;-68
2021/06/09 04:10:47;;;;;;;16.35;9.27;;;;;;;;;;4937244;29;20019;-68
2021/06/09 04:13:14;;;;;;;15.50;8.98;;;;;;;;;;4937300;29;20039;-68
2021/06/09 04:15:40;;;;;;;14.98;8.95;;;;;;;;;;4937403;29;20095;-67
2021/06/09 04:18:07;;;;;;;13.07;9.40;;;;;;;;;;4937078;29;20028;-68
2021/06/09 04:20:34;;;;;;;16.17;8.70;;;;;;;;;;4936992;29;20043;-69
2021/06/09 04:23:00;;;;;;;14.25;7.88;;;;;;;;;;4937376;29;20036;-67
2021/06/09 04:25:26;;;;;;;10.25;7.80;;;;;;;;;;4936996;29;20504;-70
2021/06/09 04:27:54;;;;;;;11.48;7.43;;;;;;;;;;4936987;29;20039;-68
2021/06/09 04:30:21;;;;;;;11.07;8.00;;;;;;;;;;4936928;29;20032;-69
2021/06/09 04:33:01;;;;;;;14.32;7.93;;;;;;;;;;4937034;29;20062;-68
2021/06/09 04:35:28;;;;;;;11.90;7.40;;;;;;;;;;4936793;29;20039;-70
2021/06/09 04:37:55;;;;;;;10.75;7.25;;;;;;;;;;4936912;29;20506;-67
2021/06/09 04:40:24;;;;;;;11.85;7.35;;;;;;;;;;4936715;29;20048;-67
2021/06/09 04:42:52;;;;;;;10.07;6.97;;;;;;;;;;4936451;29;20070;-68
2021/06/09 04:45:18;;;;;;;12.30;7.40;;;;;;;;;;4936495;29;20087;-68
2021/06/09 04:47:45;;;;;;;9.13;6.78;;;;;;;;;;4936566;29;20464;-69
2021/06/09 04:50:12;;;;;;;8.57;7.13;;;;;;;;;;4936463;29;20055;-69
2021/06/09 04:52:38;;;;;;;8.95;7.43;;;;;;;;;;4936411;29;20526;-69
2021/06/09 04:55:07;;;;;;;11.57;7.20;;;;;;;;;;4936383;29;20051;-68
2021/06/09 04:57:33;;;;;;;10.30;6.90;;;;;;;;;;4936383;29;20038;-66
2021/06/09 04:59:59;;;;;;;9.75;7.43;;;;;;;;;;4936111;29;20441;-68
2021/06/09 05:02:25;;;;;;;10.13;6.85;;;;;;;;;;4936257;29;20554;-66
2021/06/09 05:04:51;;;;;;;8.35;6.82;;;;;;;;;;4936385;29;20097;-67
2021/06/09 05:07:17;;;;;;;11.70;6.90;;;;;;;;;;4936426;29;20027;-66
2021/06/09 05:09:43;;;;;;;10.75;6.93;;;;;;;;;;4936179;29;20040;-66
2021/06/09 05:12:18;;;;;;;9.73;7.05;;;;;;;;;;4936194;29;20042;-67
2021/06/09 05:14:47;;;;;;;10.20;6.72;;;;;;;;;;4935852;29;20118;-68
2021/06/09 05:17:14;;;;;;;12.00;7.50;;;;;;;;;;4935844;29;20043;-69
2021/06/09 05:19:41;;;;;;;11.40;7.00;;;;;;;;;;4936020;29;20046;-68
2021/06/09 05:22:19;;;;;;;11.05;6.70;;;;;;;;;;4917892;29;20028;-69
2021/06/09 05:24:46;;;;;;;12.20;7.18;;;;;;;;;;4917814;29;20383;-69
2021/06/09 05:27:15;;;;;;;10.48;6.55;;;;;;;;;;4935829;29;20055;-68
2021/06/09 05:29:43;;;;;;;8.75;6.20;;;;;;;;;;4935792;29;20095;-63
2021/06/09 05:32:09;;;;;;;10.45;6.47;;;;;;;;;;4935841;29;20388;-66
2021/06/09 05:34:40;;;;;;;11.30;6.22;;;;;;;;;;4935625;29;20023;-65
2021/06/09 05:37:07;;;;;;;11.90;5.78;;;;;;;;;;4935554;29;20028;-65
2021/06/09 05:39:37;;;;;;;10.48;5.60;;;;;;;;;;4934971;29;20040;-70
2021/06/09 05:42:06;;;;;;;9.18;6.30;;;;;;;;;;4934960;29;20408;-69
2021/06/09 05:44:32;;;;;;;12.02;6.95;;;;;;;;;;4934904;29;20083;-65
2021/06/09 05:47:00;;;;;;;10.07;6.50;;;;;;;;;;4945847;29;20432;-66
2021/06/09 05:49:26;;;;;;;12.63;6.50;;;;;;;;;;4935585;29;20032;-69
2021/06/09 05:51:52;;;;;;;12.40;6.72;;;;;;;;;;4935219;29;20581;-71
2021/06/09 05:54:19;;;;;;;10.82;6.65;;;;;;;;;;4935155;29;20032;-69
2021/06/09 05:56:45;;;;;;;9.00;6.38;;;;;;;;;;4935466;29;20031;-69
2021/06/09 05:59:13;;;;;;;8.75;6.20;;;;;;;;;;4934954;29;20086;-66
2021/06/09 06:01:39;;;;;;;11.23;6.40;;;;;;;;;;4935292;29;20027;-67
2021/06/09 06:04:07;;;;;;;10.93;6.57;;;;;;;;;;4935187;29;20043;-69
2021/06/09 06:06:33;;;;;;;12.27;6.45;;;;;;;;;;4935252;29;20028;-67
2021/06/09 06:08:59;;;;;;;11.55;6.85;;;;;;;;;;4935108;29;20036;-69
2021/06/09 06:11:25;;;;;;;11.52;7.00;;;;;;;;;;4935008;29;20086;-71
2021/06/09 06:13:51;;;;;;;10.07;6.80;;;;;;;;;;4934001;29;20090;-68
2021/06/09 06:16:18;;;;;;;14.18;6.60;;;;;;;;;;4934936;29;20052;-67
2021/06/09 06:18:45;;;;;;;12.57;6.30;;;;;;;;;;4934927;29;20039;-68
2021/06/09 06:21:13;;;;;;;9.93;7.07;;;;;;;;;;4936919;29;20039;-70
2021/06/09 06:23:39;;;;;;;8.52;6.85;;;;;;;;;;4935537;29;20028;-69
2021/06/09 06:26:06;;;;;;;12.20;8.02;;;;;;;;;;4939125;29;20036;-68
2021/06/09 06:28:33;;;;;;;13.57;7.35;;;;;;;;;;4944104;29;20020;-69
2021/06/09 06:31:01;;;;;;;11.18;7.28;;;;;;;;;;4939660;29;20116;-68
2021/06/09 06:33:28;;;;;;;13.00;7.13;;;;;;;;;;4934589;29;20023;-69
2021/06/09 06:35:57;;;;;;;11.07;7.00;;;;;;;;;;4934288;29;20027;-65
2021/06/09 06:38:23;;;;;;;11.63;7.30;;;;;;;;;;4934281;29;20030;-67
2021/06/09 06:40:49;;;;;;;11.70;6.80;;;;;;;;;;4933716;29;20478;-74
2021/06/09 06:43:16;;;;;;;9.07;6.65;;;;;;;;;;4934639;29;20075;-67
2021/06/09 06:45:42;;;;;;;15.63;7.50;;;;;;;;;;4934240;29;20506;-67
2021/06/09 06:48:09;;;;;;;13.00;7.63;;;;;;;;;;4930969;29;20032;-65
2021/06/09 06:50:37;;;;;;;11.60;7.65;;;;;;;;;;4930823;29;20075;-67
2021/06/09 06:53:06;;;;;;;11.95;8.27;;;;;;;;;;4930883;29;20023;-72
2021/06/09 06:55:32;;;;;;;12.82;8.10;;;;;;;;;;4929943;29;20038;-60
2021/06/09 06:57:58;;;;;;;14.20;7.25;;;;;;;;;;4930821;29;20033;-69
2021/06/09 07:00:24;;;;;;;11.18;7.95;;;;;;;;;;4934034;29;20068;-69
2021/06/09 07:02:54;;;;;;;11.68;7.57;;;;;;;;;;4933773;29;20110;-64
2021/06/09 07:05:21;;;;;;;11.40;6.57;;;;;;;;;;4933789;29;20038;-62
2021/06/09 07:07:48;;;;;;;11.02;7.00;;;;;;;;;;4933841;29;20110;-65
2021/06/09 07:10:15;;;;;;;14.35;7.38;;;;;;;;;;4933721;29;20052;-67
2021/06/09 07:12:42;;;;;;;11.25;6.88;;;;;;;;;;4931990;29;20071;-64
2021/06/09 07:15:09;;;;;;;12.68;6.65;;;;;;;;;;4933797;29;20487;-64
2021/06/09 07:17:39;;;;;;;10.27;8.13;;;;;;;;;;4944680;29;20031;-69
2021/06/09 07:20:10;;;;;;;15.18;8.43;;;;;;;;;;4916092;29;20546;-73
2021/06/09 07:22:36;;;;;;;15.60;7.47;;;;;;;;;;4933847;29;20050;-70
2021/06/09 07:25:03;;;;;;;13.93;6.57;;;;;;;;;;4933419;29;20494;-71
2021/06/09 07:27:31;;;;;;;15.35;7.50;;;;;;;;;;4933144;29;20551;-69
2021/06/09 07:29:57;;;;;;;13.90;7.03;;;;;;;;;;4933012;29;20388;-68
2021/06/09 07:32:25;;;;;;;9.48;6.85;;;;;;;;;;4933424;29;20515;-67
2021/06/09 07:34:51;;;;;;;13.80;7.45;;;;;;;;;;4933593;29;20050;-65
2021/06/09 07:37:19;;;;;;;16.35;7.32;;;;;;;;;;4933005;29;20027;-67
2021/06/09 07:39:49;;;;;;;16.63;6.95;;;;;;;;;;4933225;29;20484;-68
2021/06/09 07:42:17;;;;;;;13.55;6.57;;;;;;;;;;4933394;29;20776;-65
2021/06/09 07:44:46;;;;;;;14.95;6.43;;;;;;;;;;4933272;29;20086;-64
2021/06/09 07:47:13;;;;;;;12.40;6.50;;;;;;;;;;4951945;29;20294;-73
2021/06/09 07:49:39;;;;;;;11.43;5.80;;;;;;;;;;4934139;29;20074;-66
2021/06/09 07:52:05;;;;;;;11.50;7.05;;;;;;;;;;4928453;29;20446;-66
2021/06/09 07:54:33;;;;;;;14.65;6.47;;;;;;;;;;4919329;29;20063;-69
2021/06/09 07:57:01;;;;;;;13.38;6.40;;;;;;;;;;4934000;29;20388;-74
2021/06/09 07:59:27;;;;;;;12.60;6.03;;;;;;;;;;4933992;29;20103;-68
2021/06/09 08:01:53;;;;;;;16.58;6.50;;;;;;;;;;4934304;29;20487;-66
2021/06/09 08:04:21;;;;;;;15.48;7.07;;;;;;;;;;4934504;29;20032;-74
2021/06/09 08:06:47;;;;;;;12.75;6.70;;;;;;;;;;4934571;29;20024;-69
2021/06/09 08:09:15;;;;;;;12.35;6.43;;;;;;;;;;4935000;29;20028;-63
2021/06/09 08:11:41;;;;;;;10.48;5.90;;;;;;;;;;4934158;29;20047;-66
2021/06/09 08:14:08;;;;;;;14.20;6.75;;;;;;;;;;4933974;29;20543;-69
2021/06/09 08:16:35;;;;;;;12.57;6.35;;;;;;;;;;4932297;29;20024;-69
2021/06/09 08:19:05;;;;;;;12.65;6.32;;;;;;;;;;4932322;29;20040;-69
2021/06/09 08:21:33;;;;;;;10.32;6.47;;;;;;;;;;4932842;29;20778;-66
2021/06/09 08:23:59;;;;;;;9.90;6.63;;;;;;;;;;4932772;29;20035;-68
2021/06/09 08:26:26;;;;;;;11.80;6.28;;;;;;;;;;4929857;29;20051;-72
2021/06/09 08:28:53;;;;;;;9.45;5.95;;;;;;;;;;4930712;29;20070;-69
2021/06/09 08:31:22;;;;;;;10.10;6.05;;;;;;;;;;4932403;29;20086;-68
2021/06/09 08:33:49;;;;;;;13.18;5.82;;;;;;;;;;4932170;29;20047;-69
2021/06/09 08:36:15;;;;;;;12.40;6.22;;;;;;;;;;4933465;29;20499;-68
2021/06/09 08:38:42;;;;;;;12.93;5.75;;;;;;;;;;4935581;29;20079;-66
2021/06/09 08:41:08;;;;;;;8.55;5.65;;;;;;;;;;4936380;29;20044;-69
2021/06/09 08:43:35;;;;;;;11.63;5.72;;;;;;;;;;4936527;29;20096;-69
2021/06/09 08:46:03;;;;;;;11.45;5.70;;;;;;;;;;4935913;29;20035;-68
2021/06/09 08:48:29;;;;;;;8.75;5.53;;;;;;;;;;4936003;29;20498;-68
2021/06/09 08:50:55;;;;;;;10.60;6.03;;;;;;;;;;4935956;29;20031;-67
2021/06/09 08:53:22;;;;;;;10.95;6.03;;;;;;;;;;4935743;29;20110;-66
2021/06/09 08:55:49;;;;;;;13.02;5.65;;;;;;;;;;4936646;29;20047;-69
2021/06/09 08:58:16;;;;;;;11.57;5.75;;;;;;;;;;4936416;29;20040;-69
2021/06/09 09:00:43;;;;;;;12.68;5.75;;;;;;;;;;4936274;29;20432;-71
2021/06/09 09:03:09;;;;;;;14.20;5.65;;;;;;;;;;4936428;29;20801;-70
2021/06/09 09:05:35;;;;;;;10.68;5.32;;;;;;;;;;4936527;29;20030;-69
2021/06/09 09:08:02;;;;;;;8.65;5.20;;;;;;;;;;4935447;29;20781;-67
2021/06/09 09:10:28;;;;;;;11.45;4.57;;;;;;;;;;4936212;29;20059;-70
2021/06/09 09:12:55;;;;;;;7.25;4.40;;;;;;;;;;4935825;29;20059;-69
2021/06/09 09:15:21;;;;;;;6.15;4.43;;;;;;;;;;4936189;29;20032;-65
2021/06/09 09:17:51;;;;;;;8.80;4.38;;;;;;;;;;4918691;29;20035;-74
2021/06/09 09:20:21;;;;;;;8.40;4.68;;;;;;;;;;4936015;29;20036;-66
2021/06/09 09:22:47;;;;;;;5.78;4.03;;;;;;;;;;4935579;29;20555;-63
2021/06/09 09:25:17;;;;;;;6.65;3.78;;;;;;;;;;4935477;29;20066;-67
2021/06/09 09:27:53;;;;;;;7.03;4.57;;;;;;;;;;4935300;29;20032;-66
2021/06/09 09:30:19;;;;;;;8.13;3.75;;;;;;;;;;4935760;29;20023;-64
2021/06/09 09:33:03;;;;;;;11.90;4.32;;;;;;;;;;4935894;29;20031;-65
2021/06/09 09:35:30;;;;;;;9.40;4.60;;;;;;;;;;4935520;29;20062;-66
2021/06/09 09:38:15;;;;;;;7.63;4.50;;;;;;;;;;4934125;29;20425;-66
2021/06/09 09:40:59;;;;;;;8.07;4.35;;;;;;;;;;4934809;29;20373;-64
2021/06/09 09:43:42;;;;;;;4.82;4.00;;;;;;;;;;4935827;29;20036;-66
2021/06/09 09:46:09;;;;;;;7.25;4.20;;;;;;;;;;4934944;29;20023;-68
2021/06/09 09:48:38;;;;;;;10.68;4.22;;;;;;;;;;4916578;29;20119;-64
2021/06/09 09:51:04;;;;;;;7.07;3.78;;;;;;;;;;4935159;29;20471;-65
2021/06/09 09:53:31;;;;;;;8.98;3.63;;;;;;;;;;4935173;29;20040;-68
2021/06/09 09:56:10;;;;;;;6.53;4.07;;;;;;;;;;4934786;29;20509;-68
2021/06/09 09:58:38;;;;;;;6.68;4.72;;;;;;;;;;4934397;29;20476;-68
2021/06/09 10:01:10;;;;;;;9.90;4.70;;;;;;;;;;4934609;29;20039;-62
2021/06/09 10:03:37;;;;;;;7.15;4.40;;;;;;;;;;4934959;29;20089;-69
2021/06/09 10:06:22;;;;;;;7.40;4.10;;;;;;;;;;4934671;29;20123;-68
2021/06/09 10:08:49;;;;;;;6.15;3.15;;;;;;;;;;4934857;29;20024;-67
2021/06/09 10:11:16;;;;;;;6.85;3.20;;;;;;;;;;4917523;29;20038;-67
2021/06/09 10:13:42;;;;;;;4.80;3.22;;;;;;;;;;4934806;29;20396;-66
2021/06/09 10:16:25;;;;;;;5.97;3.60;;;;;;;;;;4934757;29;20032;-65
2021/06/09 10:19:06;;;;;;;8.93;3.70;;;;;;;;;;4934559;29;20035;-65
2021/06/09 10:21:32;;;;;;;5.65;3.53;;;;;;;;;;4934735;29;20034;-66
2021/06/09 10:24:00;;;;;;;7.20;3.80;;;;;;;;;;4934211;29;20027;-66
2021/06/09 10:26:27;;;;;;;6.50;3.40;;;;;;;;;;4920539;29;20476;-65
2021/06/09 10:29:00;;;;;;;5.47;3.70;;;;;;;;;;4937416;29;20114;-67
2021/06/09 10:31:26;;;;;;;5.07;3.33;;;;;;;;;;4935035;29;20062;-64
2021/06/09 10:33:53;;;;;;;6.75;3.35;;;;;;;;;;4934345;29;20582;-67
2021/06/09 10:36:19;;;;;;;6.30;4.00;;;;;;;;;;4916879;29;20066;-66
2021/06/09 10:38:47;;;;;;;8.05;3.72;;;;;;;;;;4934554;29;20039;-67
2021/06/09 10:41:14;;;;;;;4.65;3.58;;;;;;;;;;4919849;29;20056;-66
2021/06/09 10:43:45;;;;;;;4.25;3.42;;;;;;;;;;4936294;29;20032;-63
2021/06/09 10:46:12;;;;;;;6.63;3.83;;;;;;;;;;4939430;29;20848;-67
2021/06/09 10:48:40;;;;;;;7.00;3.65;;;;;;;;;;4921951;29;20043;-67
2021/06/09 10:51:08;;;;;;;4.90;3.20;;;;;;;;;;4918798;29;20690;-67
2021/06/09 10:53:36;;;;;;;8.80;4.80;;;;;;;;;;4920563;29;20039;-66
2021/06/09 10:56:02;;;;;;;4.45;3.00;;;;;;;;;;4921233;29;20044;-66
2021/06/09 10:58:28;;;;;;;6.00;3.13;;;;;;;;;;4924008;29;20111;-63
2021/06/09 11:00:56;;;;;;;8.25;4.47;;;;;;;;;;4918936;29;20095;-67
2021/06/09 11:03:23;;;;;;;4.35;3.08;;;;;;;;;;4933442;29;20404;-65
2021/06/09 11:05:49;;;;;;;6.05;4.10;;;;;;;;;;4933734;29;20031;-66
2021/06/09 11:08:16;;;;;;;6.05;3.42;;;;;;;;;;4918510;29;20126;-63
2021/06/09 11:10:45;;;;;;;7.75;3.50;;;;;;;;;;4933724;29;20107;-65
2021/06/09 11:13:11;;;;;;;12.63;4.25;;;;;;;;;;4933602;29;20063;-63
2021/06/09 11:15:39;;;;;;;7.88;3.92;;;;;;;;;;4933368;29;20032;-65
2021/06/09 11:18:13;;;;;;;5.82;3.15;;;;;;;;;;4933351;29;20106;-65
2021/06/09 11:20:40;;;;;;;6.80;3.10;;;;;;;;;;4933455;29;20087;-64
2021/06/09 11:23:09;;;;;;;6.07;3.10;;;;;;;;;;4933525;29;20035;-66
2021/06/09 11:25:40;;;;;;;5.05;2.92;;;;;;;;;;4932744;29;20541;-65
2021/06/09 11:28:16;;;;;;;4.93;3.53;;;;;;;;;;4933487;29;20024;-65
2021/06/09 11:30:43;;;;;;;7.63;3.28;;;;;;;;;;4933770;29;20042;-64
2021/06/09 11:33:10;;;;;;;5.93;2.90;;;;;;;;;;4932897;29;20024;-62
2021/06/09 11:35:42;;;;;;;3.83;3.10;;;;;;;;;;4933609;29;20479;-63
2021/06/09 11:38:12;;;;;;;5.90;3.00;;;;;;;;;;4935412;29;20490;-60
2021/06/09 11:40:51;;;;;;;4.32;3.28;;;;;;;;;;4915955;29;20447;-63
2021/06/09 11:43:20;;;;;;;5.85;3.20;;;;;;;;;;4933054;29;20032;-62
2021/06/09 11:45:57;;;;;;;6.40;3.40;;;;;;;;;;4932979;29;20068;-61
2021/06/09 11:48:26;;;;;;;3.67;2.55;;;;;;;;;;4933318;29;20034;-63
2021/06/09 11:50:58;;;;;;;6.78;3.05;;;;;;;;;;4933439;29;20484;-63
2021/06/09 11:53:45;;;;;;;3.38;2.80;;;;;;;;;;4932761;29;20042;-65
2021/06/09 11:56:14;;;;;;;5.45;3.25;;;;;;;;;;4934325;29;20110;-66
2021/06/09 11:58:40;;;;;;;4.15;3.03;;;;;;;;;;4943660;29;20046;-66
2021/06/09 12:01:07;;;;;;;7.18;3.00;;;;;;;;;;4952535;29;20491;-66
2021/06/09 12:03:34;;;;;;;6.88;3.10;;;;;;;;;;4952277;29;20034;-68
2021/06/09 12:06:12;;;;;;;6.05;3.13;;;;;;;;;;4952079;29;20031;-66
2021/06/09 12:08:38;;;;;;;5.25;3.30;;;;;;;;;;4951989;29;20032;-64
2021/06/09 12:11:04;;;;;;;6.30;3.38;;;;;;;;;;4952319;28;20374;-70
2021/06/09 12:13:30;;;;;;;8.27;4.10;;;;;;;;;;4955536;29;20027;-63
2021/06/09 12:16:26;;;;;;;6.25;3.15;;;;;;;;;;4956164;29;20030;-64
2021/06/09 12:18:53;;;;;;;4.57;3.65;;;;;;;;;;4858448;29;20053;-61
2021/06/09 12:21:20;;;;;;;5.22;2.70;;;;;;;;;;4858989;29;20218;-72
2021/06/09 12:23:56;;;;;;;3.58;2.53;;;;;;;;;;4859170;29;20171;-67
2021/06/09 12:26:23;;;;;;;3.70;2.97;;;;;;;;;;4858576;29;20030;-71
2021/06/09 12:29:00;;;;;;;5.30;3.13;;;;;;;;;;4858835;29;20041;-75
2021/06/09 12:31:26;;;;;;;5.28;2.78;;;;;;;;;;4858934;29;20048;-75
2021/06/09 12:33:53;;;;;;;5.20;2.78;;;;;;;;;;4858480;29;20033;-68
2021/06/09 12:36:19;;;;;;;6.30;2.85;;;;;;;;;;4858844;29;20041;-66
2021/06/09 12:38:45;;;;;;;4.78;2.72;;;;;;;;;;4858568;29;20030;-69
2021/06/09 12:41:11;;;;;;;4.57;2.70;;;;;;;;;;4858061;29;20525;-70
2021/06/09 12:43:38;;;;;;;6.20;2.90;;;;;;;;;;4858642;29;20057;-69
2021/06/09 12:46:04;;;;;;;6.20;3.20;;;;;;;;;;4858535;29;20041;-69
2021/06/09 12:48:34;;;;;;;4.82;2.80;;;;;;;;;;4860893;29;20041;-69
2021/06/09 12:51:01;;;;;;;5.07;2.53;;;;;;;;;;4861417;29;20045;-68
2021/06/09 12:53:28;;;;;;;5.07;2.63;;;;;;;;;;4844903;29;20026;-65
2021/06/09 12:55:59;;;;;;;5.28;2.80;;;;;;;;;;4934920;29;20517;-73
2021/06/09 12:58:29;;;;;;;5.68;2.65;;;;;;;;;;4960187;29;20114;-69
2021/06/09 13:01:03;;;;;;;8.02;2.47;;;;;;;;;;4958041;29;20100;-73
2021/06/09 13:03:38;;;;;;;5.75;2.58;;;;;;;;;;4961146;29;20042;-71
2021/06/09 13:06:08;;;;;;;9.07;2.80;;;;;;;;;;4959145;29;20043;-71
2021/06/09 13:08:37;;;;;;;5.50;2.45;;;;;;;;;;4960872;29;20058;-70
2021/06/09 13:11:03;;;;;;;9.13;2.88;;;;;;;;;;4959378;29;20038;-71
2021/06/09 13:13:29;;;;;;;4.32;2.60;;;;;;;;;;4959347;29;20066;-72
2021/06/09 13:15:56;;;;;;;5.95;2.42;;;;;;;;;;4955541;29;20510;-73
2021/06/09 13:18:42;;;;;;;9.55;4.20;;;;;;;;;;4950969;29;20402;-72
2021/06/09 13:21:14;;;;;;;6.05;2.30;;;;;;;;;;4951160;29;20574;-71
2021/06/09 13:23:40;;;;;;;9.52;2.95;;;;;;;;;;4949879;28;20019;-74
2021/06/09 13:26:07;;;;;;;4.05;2.55;;;;;;;;;;4951647;29;20553;-72
2021/06/09 13:28:33;;;;;;;4.05;2.47;;;;;;;;;;4953449;29;20027;-69
2021/06/09 13:30:59;;;;;;;5.25;2.60;;;;;;;;;;4954475;29;20024;-70
2021/06/09 13:33:26;;;;;;;6.13;2.65;;;;;;;;;;4953996;29;20042;-73
2021/06/09 13:35:52;;;;;;;6.22;3.00;;;;;;;;;;4954500;29;20122;-70
2021/06/09 13:38:18;;;;;;;7.93;2.80;;;;;;;;;;4954527;29;20031;-71
2021/06/09 13:40:44;;;;;;;6.30;2.97;;;;;;;;;;4955759;29;20110;-70
2021/06/09 13:43:12;;;;;;;6.07;2.80;;;;;;;;;;4954590;29;20040;-73
2021/06/09 13:45:39;;;;;;;3.13;2.47;;;;;;;;;;4936363;29;20497;-70
2021/06/09 13:48:10;;;;;;;7.00;2.97;;;;;;;;;;4953431;29;20074;-71
2021/06/09 13:50:37;;;;;;;6.60;2.83;;;;;;;;;;4937357;29;20035;-72
2021/06/09 13:53:08;;;;;;;6.07;2.80;;;;;;;;;;4938159;29;20041;-70
2021/06/09 13:55:39;;;;;;;5.17;2.80;;;;;;;;;;4954435;29;20030;-70
2021/06/09 13:58:05;;;;;;;6.10;2.40;;;;;;;;;;4954152;29;20371;-71
2021/06/09 14:00:33;;;;;;;4.15;2.70;;;;;;;;;;4954304;29;20114;-70
2021/06/09 14:02:59;;;;;;;3.42;2.67;;;;;;;;;;4954407;29;20082;-72
2021/06/09 14:05:26;;;;;;;4.88;2.85;;;;;;;;;;4954485;29;20102;-70
2021/06/09 14:07:57;;;;;;;3.03;2.50;;;;;;;;;;4955961;29;20085;-70
2021/06/09 14:10:26;;;;;;;5.72;2.53;;;;;;;;;;4955941;29;20077;-70
2021/06/09 14:12:52;;;;;;;7.00;2.97;;;;;;;;;;4955859;29;20050;-72
2021/06/09 14:15:20;;;;;;;6.13;3.08;;;;;;;;;;4954070;29;20033;-73
2021/06/09 14:17:46;;;;;;;4.68;2.67;;;;;;;;;;4953977;29;20035;-72
2021/06/09 14:20:16;;;;;;;5.68;2.70;;;;;;;;;;4953741;29;20049;-72
2021/06/09 14:22:42;;;;;;;5.35;2.40;;;;;;;;;;4953176;29;20038;-70
2021/06/09 14:25:14;;;;;;;4.32;2.70;;;;;;;;;;4952444;29;20031;-70
2021/06/09 14:27:40;;;;;;;;;;;;;;;;;;4952573;29;20114;-69
2021/06/09 14:30:08;;;;;;;5.45;2.70;;;;;;;;;;4951684;29;20041;-71
2021/06/09 14:32:38;;;;;;;6.10;2.70;;;;;;;;;;4952533;29;20027;-73
2021/06/09 14:35:14;;;;;;;4.07;2.47;;;;;;;;;;4952707;28;20029;-73
2021/06/09 14:37:41;;;;;;;4.85;3.08;;;;;;;;;;4953238;29;20025;-72
2021/06/09 14:40:14;;;;;;;3.38;2.80;;;;;;;;;;4952921;29;20041;-72
2021/06/09 14:42:40;;;;;;;6.95;2.90;;;;;;;;;;4953272;29;20047;-71